Skip Navigation Links
NOAA logo - Click to go to the NOAA homepage
NOAA's National Weather Service
Alaska Aviation Weather Unit
  NWS logo - Click to go to the NWS homepage
Left Navbar Graphic     22 AKDT = 06 GMT

   
NOAA is celebrating 200 years of science, service, and stewardship. Visit the NOAA 200th celebration Web site to learn more.
USA.gov is the U.S. Government's official Web portal to all Federal, state and local government Web resources and services.
Facebook
NWS on Facebook

Important Change Regarding the AAWU Web Presence

 

Over the last several months, the AAWU has been working to navigate its webpages to a nationally supported server. Security, as well as other needs, have necessitated the change.  We have been given an extension for the site changeover while we diligently work at addressing feedback received. As of July 14, 2017, aawu.arh.noaa.gov will be discontinued. The new AAWU web address is weather.gov/aawu. It is now live and will run in-parallel with the old site until it is discontinued on July 14, 2017. Please continue to send any feedback or questions regarding the new webpages to nws.ar.aawu.webauthors@noaa.gov.  Thank you for your patience during this time of transition.
AAWU Home :: Display TAF Add Bookmark
TAF PADU 260530Z 2606/2706 20011KT P6SM FEW120
     FM260800 28011KT P6SM BKN025
     FM261500 29008KT P6SM OVC015
     FM261800 28011KT 4SM -RA BR OVC010=

METAR PADU 260056Z 21015G21KT 10SM SCT300 18/11 A3017 RMK AO2 SLP216 ACSL ALQDS MH T01830111= METAR PADU 260156Z 19014G22KT 10SM FEW032 SCT300 17/11 A3017 RMK AO2 SLP217 ACSL ALL QUADS RH T01720111= METAR PADU 260256Z 09009KT 10SM FEW025 SCT300 14/10 A3018 RMK AO2 SLP219 ACSL ALL QUADS RH T01390100 53000= METAR PADU 260356Z 21010KT 10SM SCT025 SCT300 16/11 A3018 RMK AO2 SLP221 ACSL NE RH T01610106= METAR PADU 260456Z 20010KT 10SM SCT025 SCT300 14/09 A3018 RMK AO2 SLP221 ACSL NE LAST RH T01390094= PADU 260556Z AUTO 21013G17KT 10SM OVC080 14/09 A3019 RMK AO2 SLP223 T01390094 10183 20139 51004=
 Alaska TAF Map

NOAA's National Weather Service
Alaska Aviation Weather Unit
6930 Sand Lake Road
Anchorage, AK 99502-1845
Disclaimer
Credits
Glossary
Privacy Policy
About Us
Career Opportunities
Contact AAWU Internet Services Site last modified: April, 17th 2012